David Orban

Olheiro - Ferencvaros
4 Jun 2028
Domingo
Processo

Personalidade

Adaptabilidade (16) Ambição (3) Controvérsia (5) Lealdade (2) Pressão (14) Profissionalismo (15) Espírito Esportivo (5) Temperamento (13)

Perfil

Estilo de Treinamento Democrático
Licença Nacional A
Determinação 11
Gestão de Pessoas 13
Motivação 9
Disciplina 5
Satisfação no Trabalho
100%
Fadiga
0%
Função Olheiro
Salário 18.7K p/s
Contrato 14.03.2030

Desempenho

Comportamento Bom
Eficácia do Treinamento
45%
Desenvolvimento do Jogador
60%
Prevenção de Lesões
65%
Implementação Tática
45%

Eventos Recentes

Avaliou um jogador agora
Apresentou um dossiê à direção agora

Monitorando agora

88
Jogador Clube Status Habilidade Confiança Observado Última observação Último voto
John Chetauya Elche Ativo 131 / 131 40% 1 01.06.2028 -
Tahith Chong Notts County Ativo 125 / 126 40% 1 01.06.2028 -
Isaiah Jones Luton Town Ativo 130 / 124 40% 1 01.06.2028 -
Michele Šego Hajduk Split Ativo 139 / 136 40% 2 31.01.2028 -
Wilfried Kanga Al-Fateh Ativo 135 / 109 40% 1 31.01.2028 -
Filip Stojilković Pisa Ativo 121 / 121 40% 1 29.01.2028 -
Dion Beljo Dinamo Zagreb Ativo 137 / 133 40% 1 26.01.2028 -
Dom Ballard Leyton Orient Ativo 117 / 119 40% 1 26.01.2028 -
Willem Geubbels Lecce Ativo 129 / 136 40% 1 23.01.2028 -
Tijjani Noslin Lazio Ativo 147 / 141 40% 1 21.01.2028 -
Agustín Anello Spartak Moscow Ativo 138 / 133 40% 1 21.01.2028 -
Armstrong Oko-Flex Levski Ativo 118 / 111 40% 2 18.01.2028 -
Guillermo Enrique Huracán Ativo 133 / 120 40% 1 02.01.2028 -
Lorenzo Lucca Napoli Ativo 149 / 155 40% 2 30.08.2027 -
Vicente Poggi Godoy Cruz Ativo 123 / 118 40% 1 28.08.2027 -
Mahmoud Al Hashmi CSKA Moscow Ativo 128 / 119 40% 1 27.08.2027 -
Patson Daka Leicester City Ativo 129 / 123 40% 1 26.08.2027 -
Ignacio Russo Tigre Ativo 130 / 117 40% 1 26.08.2027 -
Tomás Silva Platense Ativo 125 / 134 40% 1 25.08.2027 -
Joaquín García Vélez Ativo 136 / 115 40% 1 25.08.2027 -
Marezi Portsmouth Ativo 133 / 119 40% 2 24.08.2027 -
Ferreirinha Zenit Ativo 136 / 125 40% 1 24.08.2027 -
Ransford Königsdörffer Mainz 05 Ativo 125 / 140 40% 1 22.08.2027 -
Ali Youssef Apollon Ativo 124 / 129 40% 2 21.08.2027 -
Alessio Zerbin Frosinone Ativo 125 / 141 40% 1 18.08.2027 -
Brooke Norton-Cuffy Genoa Ativo 145 / 144 40% 1 18.08.2027 -
David Romero Parma Ativo 137 / 125 40% 1 16.08.2027 -
Mateo Pellegrino Fiorentina Ativo 149 / 146 40% 1 16.08.2027 -
Dany Mota Monza Ativo 132 / 141 40% 2 15.08.2027 -
Mattia Felici Cagliari Ativo 143 / 141 40% 1 15.08.2027 -
Aldo Florenzi Cosenza Ativo 119 / 122 40% 1 14.08.2027 -
Jesús Vázquez Valencia Ativo 136 / 141 40% 1 14.08.2027 -
Stiven Shpendi Empoli Ativo 132 / 120 40% 1 10.08.2027 -
Tyreece Campbell Charlton Athletic Ativo 116 / 122 40% 1 06.08.2027 -
Tomáš Rigo Stoke City Ativo 140 / 134 40% 1 06.08.2027 -
Rumarn Burrell Queens Park Rangers Ativo 134 / 127 40% 2 05.08.2027 -
Cristian Shpendi Cesena Ativo 137 / 133 40% 1 05.08.2027 -
Melker Widell Swansea City Ativo 126 / 117 40% 1 05.08.2027 -
Oladapo Afolayan Blackburn Rovers Ativo 129 / 118 40% 1 04.08.2027 -
Taiwo Awoniyi Coventry City Ativo 150 / 136 40% 1 03.08.2027 -
Richard Koné Queens Park Rangers Ativo 121 / 124 40% 1 03.08.2027 -
Mathias Kvistgaarden Norwich City Ativo 117 / 128 40% 2 02.08.2027 -
Kwadwo Baah Watford Ativo 132 / 140 40% 1 02.08.2027 -
Othmane Maamma Watford Ativo 138 / 130 40% 1 02.08.2027 -
Mathias Jørgensen Blackburn Rovers Ativo 115 / 117 40% 1 02.08.2027 -
David Okereke Cremonese Ativo 119 / 133 40% 1 01.08.2027 -
Koki Saito Queens Park Rangers Ativo 131 / 124 40% 1 30.07.2027 -
Milan van Ewijk Coventry City Ativo 145 / 145 40% 1 30.07.2027 -
Isaac Price West Bromwich Albion Ativo 134 / 134 40% 1 29.07.2027 -
Elijah Adebayo Luton Town Ativo 120 / 133 40% 1 27.07.2027 -
Joe Gelhardt Hull City Ativo 132 / 134 40% 1 27.07.2027 -
Relebohile Mofokeng Orlando Pirates Negociando 133 / 129 40% 2 25.07.2027 -
Walid Cheddira Avellino Ativo 132 / 118 40% 2 21.07.2027 -
Joel Asoro Apollon Ativo 131 / 104 40% 1 20.07.2027 -
Lorenzo Venturino Genoa Ativo 125 / 128 40% 2 19.07.2027 -
Mirlind Daku Spartak Moscow Ativo 126 / 128 40% 2 17.07.2027 -
Romano Floriani Mussolini Avellino Ativo 130 / 128 40% 4 16.07.2027 -
Alex Amorim Genoa Ativo 131 / 135 40% 1 16.07.2027 -
Egas Cacintura Akhmat Grozny Ativo 126 / 118 40% 2 15.07.2027 -
Mirko Antonucci Cittadella Ativo 123 / 113 40% 4 14.07.2027 -
Marco Pompetti Padova Ativo 131 / 130 40% 1 13.07.2027 -
Bjorn Meijer Sampdoria Ativo 121 / 119 40% 1 13.07.2027 -
Rhian Brewster Derby County Ativo 131 / 117 40% 1 12.07.2027 -
Brayan Gil Baltika Ativo 126 / 117 40% 1 08.07.2027 -
Leandro Godoy CSKA Sofia Ativo 122 / 126 40% 1 08.07.2027 -
Rémy Labeau Lascary RC Lens Ativo 133 / 128 40% 1 06.07.2027 -
Yaroslav Gladyshev Dinamo Moscow Ativo 123 / 116 40% 1 05.07.2027 -
Riccardo Marchizza Frosinone Ativo 118 / 117 40% 1 02.07.2027 -
Simone Trimboli Mantova Ativo 119 / 130 40% 1 01.07.2027 -
Luka Ilić Oviedo Ativo 121 / 118 40% 1 01.07.2027 -
Randy Nteka Rayo Vallecano Ativo 134 / 135 40% 2 29.06.2027 -
Marlon Gomes Shakhtar Ativo 127 / 138 40% 1 28.06.2027 -
Matheus Davó Maccabi Netanya Ativo 115 / 105 40% 1 28.06.2027 -
Luther Lorch Free State Stars Ativo 121 / 140 40% 1 26.06.2027 -
Mark Sykes Millwall Ativo 119 / 120 40% 1 26.06.2027 -
Emanuele Adamo Spezia Ativo 123 / 129 40% 2 22.06.2027 -
Stefano Di Mario Virtus Entella Ativo 118 / 127 40% 2 20.06.2027 -
Giuseppe Di Serio Spezia Ativo 129 / 121 40% 2 15.06.2027 -
Lorenzo Ignacchiti Empoli Ativo 116 / 123 40% 1 15.06.2027 -
Léo Pereira CSKA Sofia Ativo 134 / 118 40% 2 13.06.2027 -
Marc Bola Watford Ativo 121 / 123 40% 1 12.06.2027 -
Petar Stanić Ludogorets Ativo 135 / 146 40% 1 12.06.2027 -
Khalid Al-Ghannam Al-Ettifaq Ativo 104 / 115 40% 1 11.06.2027 -
Sam Bell Bristol City Ativo 120 / 123 40% 1 10.06.2027 -
Giuseppe Leone Empoli Ativo 120 / 134 40% 1 09.06.2027 -
Marin Jurina MTK Budapest Perdido 104 / 105 58% 1 07.06.2027 Aprovar
Marco Imperiale Catanzaro Ativo 123 / 124 40% 1 02.06.2027 -
Ante Roguljić Diosgyor Ativo 112 / 122 55% 1 01.01.2027 -